sensor_id;sensor_type;location;lat;lon;timestamp;temperature;humidity
21403;DHT22;10862;51.886;17.078;2022-08-21T00:00:30;19.60;99.90
21403;DHT22;10862;51.886;17.078;2022-08-21T00:03:00;19.60;99.90
21403;DHT22;10862;51.886;17.078;2022-08-21T00:05:26;19.60;99.90
21403;DHT22;10862;51.886;17.078;2022-08-21T00:07:52;19.60;99.90
21403;DHT22;10862;51.886;17.078;2022-08-21T00:10:18;19.60;99.90
21403;DHT22;10862;51.886;17.078;2022-08-21T00:12:44;19.60;99.90
21403;DHT22;10862;51.886;17.078;2022-08-21T00:15:11;19.60;99.90
21403;DHT22;10862;51.886;17.078;2022-08-21T00:17:37;19.70;99.90
21403;DHT22;10862;51.886;17.078;2022-08-21T00:20:04;19.70;99.90
21403;DHT22;10862;51.886;17.078;2022-08-21T00:22:29;19.60;99.90
21403;DHT22;10862;51.886;17.078;2022-08-21T00:24:55;19.60;99.90
21403;DHT22;10862;51.886;17.078;2022-08-21T00:27:20;19.60;99.90
21403;DHT22;10862;51.886;17.078;2022-08-21T00:29:46;19.50;99.90
21403;DHT22;10862;51.886;17.078;2022-08-21T00:32:11;19.50;99.90
21403;DHT22;10862;51.886;17.078;2022-08-21T00:34:37;19.50;99.90
21403;DHT22;10862;51.886;17.078;2022-08-21T00:37:02;19.40;99.90
21403;DHT22;10862;51.886;17.078;2022-08-21T00:39:29;19.40;99.90
21403;DHT22;10862;51.886;17.078;2022-08-21T00:41:55;19.30;99.90
21403;DHT22;10862;51.886;17.078;2022-08-21T00:44:20;19.40;99.90
21403;DHT22;10862;51.886;17.078;2022-08-21T00:46:46;19.30;99.90
21403;DHT22;10862;51.886;17.078;2022-08-21T00:49:12;19.40;99.90
21403;DHT22;10862;51.886;17.078;2022-08-21T00:54:10;19.40;99.90
21403;DHT22;10862;51.886;17.078;2022-08-21T00:56:36;19.40;99.90
21403;DHT22;10862;51.886;17.078;2022-08-21T00:59:02;19.40;99.90
21403;DHT22;10862;51.886;17.078;2022-08-21T01:01:28;19.40;99.90
21403;DHT22;10862;51.886;17.078;2022-08-21T01:03:53;19.30;99.90
21403;DHT22;10862;51.886;17.078;2022-08-21T01:06:19;19.40;99.90
21403;DHT22;10862;51.886;17.078;2022-08-21T01:08:44;19.40;99.90
21403;DHT22;10862;51.886;17.078;2022-08-21T01:11:13;19.30;99.90
21403;DHT22;10862;51.886;17.078;2022-08-21T01:13:39;19.30;99.90
21403;DHT22;10862;51.886;17.078;2022-08-21T01:16:11;19.30;99.90
21403;DHT22;10862;51.886;17.078;2022-08-21T01:18:37;19.30;99.90
21403;DHT22;10862;51.886;17.078;2022-08-21T01:21:04;19.30;99.90
21403;DHT22;10862;51.886;17.078;2022-08-21T01:23:29;19.20;99.90
21403;DHT22;10862;51.886;17.078;2022-08-21T01:25:55;19.10;99.90
21403;DHT22;10862;51.886;17.078;2022-08-21T01:28:21;19.00;99.90
21403;DHT22;10862;51.886;17.078;2022-08-21T01:30:46;18.90;99.90
21403;DHT22;10862;51.886;17.078;2022-08-21T01:33:13;18.90;99.90
21403;DHT22;10862;51.886;17.078;2022-08-21T01:35:39;18.70;99.90
21403;DHT22;10862;51.886;17.078;2022-08-21T01:38:04;18.70;99.90
21403;DHT22;10862;51.886;17.078;2022-08-21T01:40:30;18.70;99.90
21403;DHT22;10862;51.886;17.078;2022-08-21T01:42:55;18.60;99.90
21403;DHT22;10862;51.886;17.078;2022-08-21T01:45:21;18.50;99.90
21403;DHT22;10862;51.886;17.078;2022-08-21T01:47:47;18.50;99.90
21403;DHT22;10862;51.886;17.078;2022-08-21T01:50:13;18.40;99.90
21403;DHT22;10862;51.886;17.078;2022-08-21T01:52:40;18.40;99.90
21403;DHT22;10862;51.886;17.078;2022-08-21T01:55:06;18.30;99.90
21403;DHT22;10862;51.886;17.078;2022-08-21T01:57:32;18.30;99.90
21403;DHT22;10862;51.886;17.078;2022-08-21T01:59:58;18.30;99.90
21403;DHT22;10862;51.886;17.078;2022-08-21T02:02:24;18.30;99.90
21403;DHT22;10862;51.886;17.078;2022-08-21T02:04:49;18.30;99.90
21403;DHT22;10862;51.886;17.078;2022-08-21T02:07:15;18.20;99.90
21403;DHT22;10862;51.886;17.078;2022-08-21T02:09:40;18.30;99.90
21403;DHT22;10862;51.886;17.078;2022-08-21T02:12:07;18.20;99.90
21403;DHT22;10862;51.886;17.078;2022-08-21T02:14:33;18.20;99.90
21403;DHT22;10862;51.886;17.078;2022-08-21T02:16:59;18.20;99.90
21403;DHT22;10862;51.886;17.078;2022-08-21T02:19:24;18.20;99.90
21403;DHT22;10862;51.886;17.078;2022-08-21T02:21:50;18.20;99.90
21403;DHT22;10862;51.886;17.078;2022-08-21T02:24:15;18.20;99.90
21403;DHT22;10862;51.886;17.078;2022-08-21T02:26:41;18.10;99.90
21403;DHT22;10862;51.886;17.078;2022-08-21T02:29:07;18.10;99.90
21403;DHT22;10862;51.886;17.078;2022-08-21T02:31:33;18.10;99.90
21403;DHT22;10862;51.886;17.078;2022-08-21T02:33:59;18.10;99.90
21403;DHT22;10862;51.886;17.078;2022-08-21T02:36:25;18.20;99.90
21403;DHT22;10862;51.886;17.078;2022-08-21T02:38:50;18.20;99.90
21403;DHT22;10862;51.886;17.078;2022-08-21T02:41:17;18.20;99.90
21403;DHT22;10862;51.886;17.078;2022-08-21T02:43:43;18.20;99.90
21403;DHT22;10862;51.886;17.078;2022-08-21T02:46:09;18.20;99.90
21403;DHT22;10862;51.886;17.078;2022-08-21T02:48:35;18.20;99.90
21403;DHT22;10862;51.886;17.078;2022-08-21T02:51:06;18.20;99.90
21403;DHT22;10862;51.886;17.078;2022-08-21T02:53:31;18.20;99.90
21403;DHT22;10862;51.886;17.078;2022-08-21T02:55:58;18.20;99.90
21403;DHT22;10862;51.886;17.078;2022-08-21T02:58:25;18.20;99.90
21403;DHT22;10862;51.886;17.078;2022-08-21T03:00:51;18.20;99.90
21403;DHT22;10862;51.886;17.078;2022-08-21T03:03:18;18.20;99.90
21403;DHT22;10862;51.886;17.078;2022-08-21T03:05:46;18.20;99.90
21403;DHT22;10862;51.886;17.078;2022-08-21T03:08:12;18.20;99.90
21403;DHT22;10862;51.886;17.078;2022-08-21T03:10:40;18.10;99.90
21403;DHT22;10862;51.886;17.078;2022-08-21T03:13:06;18.00;99.90
21403;DHT22;10862;51.886;17.078;2022-08-21T03:15:32;18.00;99.90
21403;DHT22;10862;51.886;17.078;2022-08-21T03:17:57;17.90;99.90
21403;DHT22;10862;51.886;17.078;2022-08-21T03:20:24;17.90;99.90
21403;DHT22;10862;51.886;17.078;2022-08-21T03:22:51;17.90;99.90
21403;DHT22;10862;51.886;17.078;2022-08-21T03:25:17;17.80;99.90
21403;DHT22;10862;51.886;17.078;2022-08-21T03:27:43;17.80;99.90
21403;DHT22;10862;51.886;17.078;2022-08-21T03:30:09;17.80;99.90
21403;DHT22;10862;51.886;17.078;2022-08-21T03:32:35;17.80;99.90
21403;DHT22;10862;51.886;17.078;2022-08-21T03:35:01;17.80;99.90
21403;DHT22;10862;51.886;17.078;2022-08-21T03:37:26;17.70;99.90
21403;DHT22;10862;51.886;17.078;2022-08-21T03:39:52;17.70;99.90
21403;DHT22;10862;51.886;17.078;2022-08-21T03:42:18;17.70;99.90
21403;DHT22;10862;51.886;17.078;2022-08-21T03:44:43;17.70;99.90
21403;DHT22;10862;51.886;17.078;2022-08-21T03:47:09;17.70;99.90
21403;DHT22;10862;51.886;17.078;2022-08-21T03:49:35;17.70;99.90
21403;DHT22;10862;51.886;17.078;2022-08-21T03:52:01;17.70;99.90
21403;DHT22;10862;51.886;17.078;2022-08-21T03:54:27;17.80;99.90
21403;DHT22;10862;51.886;17.078;2022-08-21T03:56:52;17.70;99.90
21403;DHT22;10862;51.886;17.078;2022-08-21T03:59:18;17.70;99.90
21403;DHT22;10862;51.886;17.078;2022-08-21T04:02:17;17.70;99.90
21403;DHT22;10862;51.886;17.078;2022-08-21T04:04:36;17.70;99.90
21403;DHT22;10862;51.886;17.078;2022-08-21T04:07:02;17.70;99.90
21403;DHT22;10862;51.886;17.078;2022-08-21T04:09:28;17.70;99.90
21403;DHT22;10862;51.886;17.078;2022-08-21T04:11:53;17.70;99.90
21403;DHT22;10862;51.886;17.078;2022-08-21T04:14:19;17.70;99.90
21403;DHT22;10862;51.886;17.078;2022-08-21T04:16:45;17.80;99.90
21403;DHT22;10862;51.886;17.078;2022-08-21T04:19:11;17.80;99.90
21403;DHT22;10862;51.886;17.078;2022-08-21T04:21:38;17.70;99.90
21403;DHT22;10862;51.886;17.078;2022-08-21T04:24:04;17.70;99.90
21403;DHT22;10862;51.886;17.078;2022-08-21T04:26:30;17.70;99.90
21403;DHT22;10862;51.886;17.078;2022-08-21T04:28:56;17.70;99.90
21403;DHT22;10862;51.886;17.078;2022-08-21T04:31:23;17.70;99.90
21403;DHT22;10862;51.886;17.078;2022-08-21T04:33:48;17.70;99.90
21403;DHT22;10862;51.886;17.078;2022-08-21T04:36:14;17.60;99.90
21403;DHT22;10862;51.886;17.078;2022-08-21T04:38:39;17.70;99.90
21403;DHT22;10862;51.886;17.078;2022-08-21T04:41:05;17.60;99.90
21403;DHT22;10862;51.886;17.078;2022-08-21T04:43:31;17.60;99.90
21403;DHT22;10862;51.886;17.078;2022-08-21T04:45:57;17.60;99.90
21403;DHT22;10862;51.886;17.078;2022-08-21T04:48:23;17.70;99.90
21403;DHT22;10862;51.886;17.078;2022-08-21T04:51:10;17.70;99.90
21403;DHT22;10862;51.886;17.078;2022-08-21T04:53:40;17.70;99.90
21403;DHT22;10862;51.886;17.078;2022-08-21T04:59:01;17.60;99.90
21403;DHT22;10862;51.886;17.078;2022-08-21T05:01:31;17.70;99.90
21403;DHT22;10862;51.886;17.078;2022-08-21T05:03:58;17.70;99.90
21403;DHT22;10862;51.886;17.078;2022-08-21T05:06:24;17.70;99.90
21403;DHT22;10862;51.886;17.078;2022-08-21T05:08:51;17.70;99.90
21403;DHT22;10862;51.886;17.078;2022-08-21T05:11:18;17.70;99.90
21403;DHT22;10862;51.886;17.078;2022-08-21T05:13:44;17.70;99.90
21403;DHT22;10862;51.886;17.078;2022-08-21T05:16:10;17.70;99.90
21403;DHT22;10862;51.886;17.078;2022-08-21T05:18:36;17.70;99.90
21403;DHT22;10862;51.886;17.078;2022-08-21T05:21:02;17.70;99.90
21403;DHT22;10862;51.886;17.078;2022-08-21T05:23:27;17.70;99.90
21403;DHT22;10862;51.886;17.078;2022-08-21T05:25:53;17.80;99.90
21403;DHT22;10862;51.886;17.078;2022-08-21T05:28:19;17.80;99.90
21403;DHT22;10862;51.886;17.078;2022-08-21T05:30:44;17.70;99.90
21403;DHT22;10862;51.886;17.078;2022-08-21T05:33:10;17.70;99.90
21403;DHT22;10862;51.886;17.078;2022-08-21T05:35:36;17.70;99.90
21403;DHT22;10862;51.886;17.078;2022-08-21T05:38:01;17.70;99.90
21403;DHT22;10862;51.886;17.078;2022-08-21T05:40:27;17.70;99.90
21403;DHT22;10862;51.886;17.078;2022-08-21T05:42:53;17.70;99.90
21403;DHT22;10862;51.886;17.078;2022-08-21T05:45:19;17.70;99.90
21403;DHT22;10862;51.886;17.078;2022-08-21T05:47:44;17.70;99.90
21403;DHT22;10862;51.886;17.078;2022-08-21T05:50:10;17.70;99.90
21403;DHT22;10862;51.886;17.078;2022-08-21T05:52:36;17.70;99.90
21403;DHT22;10862;51.886;17.078;2022-08-21T05:55:01;17.70;99.90
21403;DHT22;10862;51.886;17.078;2022-08-21T05:57:27;17.70;99.90
21403;DHT22;10862;51.886;17.078;2022-08-21T05:59:52;17.70;99.90
21403;DHT22;10862;51.886;17.078;2022-08-21T06:02:18;17.70;99.90
21403;DHT22;10862;51.886;17.078;2022-08-21T06:04:44;17.80;99.90
21403;DHT22;10862;51.886;17.078;2022-08-21T06:07:10;17.80;99.90
21403;DHT22;10862;51.886;17.078;2022-08-21T06:09:36;17.80;99.90
21403;DHT22;10862;51.886;17.078;2022-08-21T06:12:04;17.80;99.90
21403;DHT22;10862;51.886;17.078;2022-08-21T06:14:29;17.90;99.90
21403;DHT22;10862;51.886;17.078;2022-08-21T06:17:00;17.90;99.90
21403;DHT22;10862;51.886;17.078;2022-08-21T06:19:26;17.90;99.90
21403;DHT22;10862;51.886;17.078;2022-08-21T06:21:52;17.90;99.90
21403;DHT22;10862;51.886;17.078;2022-08-21T06:24:17;17.90;99.90
21403;DHT22;10862;51.886;17.078;2022-08-21T06:26:43;18.00;99.90
21403;DHT22;10862;51.886;17.078;2022-08-21T06:29:08;17.90;99.90
21403;DHT22;10862;51.886;17.078;2022-08-21T06:31:35;17.90;99.90
21403;DHT22;10862;51.886;17.078;2022-08-21T06:34:01;17.90;99.90
21403;DHT22;10862;51.886;17.078;2022-08-21T06:36:27;17.70;99.90
21403;DHT22;10862;51.886;17.078;2022-08-21T06:38:52;17.50;99.90
21403;DHT22;10862;51.886;17.078;2022-08-21T06:41:18;17.40;99.90
21403;DHT22;10862;51.886;17.078;2022-08-21T06:43:44;17.30;99.90
21403;DHT22;10862;51.886;17.078;2022-08-21T06:46:09;17.40;99.90
21403;DHT22;10862;51.886;17.078;2022-08-21T06:48:35;17.30;99.90
21403;DHT22;10862;51.886;17.078;2022-08-21T06:51:00;17.30;99.90
21403;DHT22;10862;51.886;17.078;2022-08-21T06:53:26;17.30;99.90
21403;DHT22;10862;51.886;17.078;2022-08-21T06:55:51;17.30;99.90
21403;DHT22;10862;51.886;17.078;2022-08-21T06:58:17;17.20;99.90
21403;DHT22;10862;51.886;17.078;2022-08-21T07:00:46;17.20;99.90
21403;DHT22;10862;51.886;17.078;2022-08-21T07:03:19;17.10;99.90
21403;DHT22;10862;51.886;17.078;2022-08-21T07:05:44;17.20;99.90
21403;DHT22;10862;51.886;17.078;2022-08-21T07:08:10;17.20;99.90
21403;DHT22;10862;51.886;17.078;2022-08-21T07:10:35;17.20;99.90
21403;DHT22;10862;51.886;17.078;2022-08-21T07:13:01;17.20;99.90
21403;DHT22;10862;51.886;17.078;2022-08-21T07:15:29;17.20;99.90
21403;DHT22;10862;51.886;17.078;2022-08-21T07:17:55;17.10;99.90
21403;DHT22;10862;51.886;17.078;2022-08-21T07:20:20;17.00;99.90
21403;DHT22;10862;51.886;17.078;2022-08-21T07:22:46;16.90;99.90
21403;DHT22;10862;51.886;17.078;2022-08-21T07:25:11;16.90;99.90
21403;DHT22;10862;51.886;17.078;2022-08-21T07:27:37;16.90;99.90
21403;DHT22;10862;51.886;17.078;2022-08-21T07:30:03;16.90;99.90
21403;DHT22;10862;51.886;17.078;2022-08-21T07:32:29;16.80;99.90
21403;DHT22;10862;51.886;17.078;2022-08-21T07:34:54;16.90;99.90
21403;DHT22;10862;51.886;17.078;2022-08-21T07:37:20;16.80;99.90
21403;DHT22;10862;51.886;17.078;2022-08-21T07:39:45;16.80;99.90
21403;DHT22;10862;51.886;17.078;2022-08-21T07:42:14;16.80;99.90
21403;DHT22;10862;51.886;17.078;2022-08-21T07:44:40;16.90;99.90
21403;DHT22;10862;51.886;17.078;2022-08-21T07:47:05;16.80;99.90
21403;DHT22;10862;51.886;17.078;2022-08-21T07:49:31;16.90;99.90
21403;DHT22;10862;51.886;17.078;2022-08-21T07:51:56;16.80;99.90
21403;DHT22;10862;51.886;17.078;2022-08-21T07:54:22;16.80;99.90
21403;DHT22;10862;51.886;17.078;2022-08-21T07:56:47;16.90;99.90
21403;DHT22;10862;51.886;17.078;2022-08-21T07:59:13;16.80;99.90
21403;DHT22;10862;51.886;17.078;2022-08-21T08:01:38;16.80;99.90
21403;DHT22;10862;51.886;17.078;2022-08-21T08:04:04;16.80;99.90
21403;DHT22;10862;51.886;17.078;2022-08-21T08:06:29;16.80;99.90
21403;DHT22;10862;51.886;17.078;2022-08-21T08:08:55;16.70;99.90
21403;DHT22;10862;51.886;17.078;2022-08-21T08:11:21;16.60;99.90
21403;DHT22;10862;51.886;17.078;2022-08-21T08:13:47;16.70;99.90
21403;DHT22;10862;51.886;17.078;2022-08-21T08:16:13;16.70;99.90
21403;DHT22;10862;51.886;17.078;2022-08-21T08:18:39;16.70;99.90
21403;DHT22;10862;51.886;17.078;2022-08-21T08:21:06;16.70;99.90
21403;DHT22;10862;51.886;17.078;2022-08-21T08:23:31;16.70;99.90
21403;DHT22;10862;51.886;17.078;2022-08-21T08:25:57;16.70;99.90
21403;DHT22;10862;51.886;17.078;2022-08-21T08:28:23;16.70;99.90
21403;DHT22;10862;51.886;17.078;2022-08-21T08:30:49;16.60;99.90
21403;DHT22;10862;51.886;17.078;2022-08-21T08:33:15;16.60;99.90
21403;DHT22;10862;51.886;17.078;2022-08-21T08:35:42;16.60;99.90
21403;DHT22;10862;51.886;17.078;2022-08-21T08:38:09;16.60;99.90
21403;DHT22;10862;51.886;17.078;2022-08-21T08:43:00;16.40;99.90
21403;DHT22;10862;51.886;17.078;2022-08-21T08:45:26;16.30;99.90
21403;DHT22;10862;51.886;17.078;2022-08-21T08:47:55;16.20;99.90
21403;DHT22;10862;51.886;17.078;2022-08-21T08:50:28;16.20;99.90
21403;DHT22;10862;51.886;17.078;2022-08-21T08:53:04;16.00;99.90
21403;DHT22;10862;51.886;17.078;2022-08-21T08:57:59;16.00;99.90
21403;DHT22;10862;51.886;17.078;2022-08-21T09:00:25;16.00;99.90
21403;DHT22;10862;51.886;17.078;2022-08-21T09:03:00;16.00;99.90
21403;DHT22;10862;51.886;17.078;2022-08-21T09:05:28;16.00;99.90
21403;DHT22;10862;51.886;17.078;2022-08-21T09:23:33;16.00;99.90
21403;DHT22;10862;51.886;17.078;2022-08-21T09:28:33;16.00;99.90
21403;DHT22;10862;51.886;17.078;2022-08-21T09:30:58;16.00;99.90
21403;DHT22;10862;51.886;17.078;2022-08-21T09:33:27;16.00;99.90
21403;DHT22;10862;51.886;17.078;2022-08-21T09:35:54;16.00;99.90
21403;DHT22;10862;51.886;17.078;2022-08-21T09:38:27;16.00;99.90
21403;DHT22;10862;51.886;17.078;2022-08-21T09:40:58;16.00;99.90
21403;DHT22;10862;51.886;17.078;2022-08-21T09:43:24;16.00;99.90
21403;DHT22;10862;51.886;17.078;2022-08-21T09:48:48;15.90;99.90
21403;DHT22;10862;51.886;17.078;2022-08-21T09:51:16;16.00;99.90
21403;DHT22;10862;51.886;17.078;2022-08-21T09:53:44;16.00;99.90
21403;DHT22;10862;51.886;17.078;2022-08-21T09:56:52;16.00;99.90
21403;DHT22;10862;51.886;17.078;2022-08-21T09:59:28;16.00;99.90
21403;DHT22;10862;51.886;17.078;2022-08-21T10:01:56;16.00;99.90
21403;DHT22;10862;51.886;17.078;2022-08-21T10:04:24;16.00;99.90
21403;DHT22;10862;51.886;17.078;2022-08-21T10:06:50;16.00;99.90
21403;DHT22;10862;51.886;17.078;2022-08-21T10:09:16;16.10;99.90
21403;DHT22;10862;51.886;17.078;2022-08-21T10:12:09;16.10;99.90
21403;DHT22;10862;51.886;17.078;2022-08-21T10:17:01;16.10;99.90
21403;DHT22;10862;51.886;17.078;2022-08-21T10:29:50;16.40;99.90
21403;DHT22;10862;51.886;17.078;2022-08-21T10:39:46;16.50;99.90
21403;DHT22;10862;51.886;17.078;2022-08-21T10:42:18;16.50;99.90
21403;DHT22;10862;51.886;17.078;2022-08-21T10:47:16;16.60;99.90
21403;DHT22;10862;51.886;17.078;2022-08-21T10:57:19;16.50;99.90
21403;DHT22;10862;51.886;17.078;2022-08-21T10:59:49;16.70;99.90
21403;DHT22;10862;51.886;17.078;2022-08-21T11:04:50;16.70;99.90
21403;DHT22;10862;51.886;17.078;2022-08-21T11:07:19;16.70;99.90
21403;DHT22;10862;51.886;17.078;2022-08-21T11:09:45;16.70;99.90
21403;DHT22;10862;51.886;17.078;2022-08-21T11:12:19;16.70;99.90
21403;DHT22;10862;51.886;17.078;2022-08-21T11:14:49;16.80;99.90
21403;DHT22;10862;51.886;17.078;2022-08-21T11:17:18;16.80;99.90
21403;DHT22;10862;51.886;17.078;2022-08-21T11:19:50;16.80;99.90
21403;DHT22;10862;51.886;17.078;2022-08-21T11:22:40;16.90;99.90
21403;DHT22;10862;51.886;17.078;2022-08-21T11:25:08;16.90;99.90
21403;DHT22;10862;51.886;17.078;2022-08-21T11:27:46;16.90;99.90
21403;DHT22;10862;51.886;17.078;2022-08-21T11:30:14;16.90;99.90
21403;DHT22;10862;51.886;17.078;2022-08-21T11:37:54;17.00;99.90
21403;DHT22;10862;51.886;17.078;2022-08-21T11:47:54;17.10;99.90
21403;DHT22;10862;51.886;17.078;2022-08-21T11:50:28;17.00;99.90
21403;DHT22;10862;51.886;17.078;2022-08-21T11:58:14;17.00;99.90
21403;DHT22;10862;51.886;17.078;2022-08-21T12:00:47;17.10;99.90
21403;DHT22;10862;51.886;17.078;2022-08-21T12:03:16;17.10;99.90
21403;DHT22;10862;51.886;17.078;2022-08-21T12:05:44;17.10;99.90
21403;DHT22;10862;51.886;17.078;2022-08-21T12:13:30;17.20;99.90
21403;DHT22;10862;51.886;17.078;2022-08-21T12:16:06;17.20;99.90
21403;DHT22;10862;51.886;17.078;2022-08-21T12:18:32;17.30;99.90
21403;DHT22;10862;51.886;17.078;2022-08-21T12:23:27;17.30;99.90
21403;DHT22;10862;51.886;17.078;2022-08-21T12:26:09;17.40;99.90
21403;DHT22;10862;51.886;17.078;2022-08-21T12:28:36;17.40;99.90
21403;DHT22;10862;51.886;17.078;2022-08-21T12:31:02;17.40;99.90
21403;DHT22;10862;51.886;17.078;2022-08-21T12:33:32;17.50;99.90
21403;DHT22;10862;51.886;17.078;2022-08-21T12:36:10;17.50;99.90
21403;DHT22;10862;51.886;17.078;2022-08-21T12:38:45;17.50;99.90
21403;DHT22;10862;51.886;17.078;2022-08-21T12:41:16;17.50;99.90
21403;DHT22;10862;51.886;17.078;2022-08-21T12:44:43;17.50;99.90
21403;DHT22;10862;51.886;17.078;2022-08-21T12:47:00;17.50;99.90
21403;DHT22;10862;51.886;17.078;2022-08-21T12:52:19;17.60;99.90
21403;DHT22;10862;51.886;17.078;2022-08-21T12:54:45;17.70;99.90
21403;DHT22;10862;51.886;17.078;2022-08-21T12:57:18;17.70;99.90
21403;DHT22;10862;51.886;17.078;2022-08-21T12:59:44;17.70;99.90
21403;DHT22;10862;51.886;17.078;2022-08-21T13:02:19;17.70;99.90
21403;DHT22;10862;51.886;17.078;2022-08-21T13:04:46;17.70;99.90
21403;DHT22;10862;51.886;17.078;2022-08-21T13:07:15;17.60;99.90
21403;DHT22;10862;51.886;17.078;2022-08-21T13:09:47;17.60;99.90
21403;DHT22;10862;51.886;17.078;2022-08-21T13:12:13;17.60;99.90
21403;DHT22;10862;51.886;17.078;2022-08-21T13:14:41;17.60;99.90
21403;DHT22;10862;51.886;17.078;2022-08-21T13:17:07;17.60;99.90
21403;DHT22;10862;51.886;17.078;2022-08-21T13:19:33;17.60;99.90
21403;DHT22;10862;51.886;17.078;2022-08-21T13:21:59;17.70;99.90
21403;DHT22;10862;51.886;17.078;2022-08-21T13:24:26;17.70;99.90
21403;DHT22;10862;51.886;17.078;2022-08-21T13:26:52;17.70;99.90
21403;DHT22;10862;51.886;17.078;2022-08-21T13:29:19;17.70;99.90
21403;DHT22;10862;51.886;17.078;2022-08-21T13:31:49;17.80;99.90
21403;DHT22;10862;51.886;17.078;2022-08-21T13:34:15;17.80;99.90
21403;DHT22;10862;51.886;17.078;2022-08-21T13:36:42;17.70;99.90
21403;DHT22;10862;51.886;17.078;2022-08-21T13:39:14;17.70;99.90
21403;DHT22;10862;51.886;17.078;2022-08-21T13:41:41;17.70;99.90
21403;DHT22;10862;51.886;17.078;2022-08-21T13:46:42;17.70;99.90
21403;DHT22;10862;51.886;17.078;2022-08-21T13:49:08;17.70;99.90
21403;DHT22;10862;51.886;17.078;2022-08-21T13:51:35;17.80;99.90
21403;DHT22;10862;51.886;17.078;2022-08-21T13:54:01;17.80;99.90
21403;DHT22;10862;51.886;17.078;2022-08-21T13:56:28;17.80;99.90
21403;DHT22;10862;51.886;17.078;2022-08-21T13:58:55;17.80;99.90
21403;DHT22;10862;51.886;17.078;2022-08-21T14:01:34;17.80;99.90
21403;DHT22;10862;51.886;17.078;2022-08-21T14:04:03;17.80;99.90
21403;DHT22;10862;51.886;17.078;2022-08-21T14:06:34;17.80;99.90
21403;DHT22;10862;51.886;17.078;2022-08-21T14:09:00;17.80;99.90
21403;DHT22;10862;51.886;17.078;2022-08-21T14:11:27;17.80;99.90
21403;DHT22;10862;51.886;17.078;2022-08-21T14:13:58;17.80;99.90
21403;DHT22;10862;51.886;17.078;2022-08-21T14:16:26;17.80;99.90
21403;DHT22;10862;51.886;17.078;2022-08-21T14:19:38;17.80;99.90
21403;DHT22;10862;51.886;17.078;2022-08-21T14:21:39;17.80;99.90
21403;DHT22;10862;51.886;17.078;2022-08-21T14:24:06;17.80;99.90
21403;DHT22;10862;51.886;17.078;2022-08-21T14:26:37;17.80;99.90
21403;DHT22;10862;51.886;17.078;2022-08-21T14:29:07;17.80;99.90
21403;DHT22;10862;51.886;17.078;2022-08-21T14:31:33;17.90;99.90
21403;DHT22;10862;51.886;17.078;2022-08-21T14:33:59;17.90;99.90
21403;DHT22;10862;51.886;17.078;2022-08-21T14:36:26;17.90;99.90
21403;DHT22;10862;51.886;17.078;2022-08-21T14:38:52;17.90;99.90
21403;DHT22;10862;51.886;17.078;2022-08-21T14:41:18;17.80;99.90
21403;DHT22;10862;51.886;17.078;2022-08-21T14:43:45;17.90;99.90
21403;DHT22;10862;51.886;17.078;2022-08-21T14:46:12;18.00;99.90
21403;DHT22;10862;51.886;17.078;2022-08-21T14:48:39;17.90;99.90
21403;DHT22;10862;51.886;17.078;2022-08-21T14:51:04;17.90;99.90
21403;DHT22;10862;51.886;17.078;2022-08-21T14:53:30;18.00;99.90
21403;DHT22;10862;51.886;17.078;2022-08-21T14:55:55;18.00;99.90
21403;DHT22;10862;51.886;17.078;2022-08-21T14:58:30;18.00;99.90
21403;DHT22;10862;51.886;17.078;2022-08-21T15:00:56;17.90;99.90
21403;DHT22;10862;51.886;17.078;2022-08-21T15:03:24;17.90;99.90
21403;DHT22;10862;51.886;17.078;2022-08-21T15:05:49;18.00;99.90
21403;DHT22;10862;51.886;17.078;2022-08-21T15:08:15;17.90;99.90
21403;DHT22;10862;51.886;17.078;2022-08-21T15:10:41;18.00;99.90
21403;DHT22;10862;51.886;17.078;2022-08-21T15:13:06;17.90;99.90
21403;DHT22;10862;51.886;17.078;2022-08-21T15:15:34;17.90;99.90
21403;DHT22;10862;51.886;17.078;2022-08-21T15:18:01;17.80;99.90
21403;DHT22;10862;51.886;17.078;2022-08-21T15:20:26;17.80;99.90
21403;DHT22;10862;51.886;17.078;2022-08-21T15:22:52;17.70;99.90
21403;DHT22;10862;51.886;17.078;2022-08-21T15:25:17;17.70;99.90
21403;DHT22;10862;51.886;17.078;2022-08-21T15:27:43;17.60;99.90
21403;DHT22;10862;51.886;17.078;2022-08-21T15:30:09;17.50;99.90
21403;DHT22;10862;51.886;17.078;2022-08-21T15:32:34;17.50;99.90
21403;DHT22;10862;51.886;17.078;2022-08-21T15:35:00;17.50;99.90
21403;DHT22;10862;51.886;17.078;2022-08-21T15:37:26;17.40;99.90
21403;DHT22;10862;51.886;17.078;2022-08-21T15:39:52;17.40;99.90
21403;DHT22;10862;51.886;17.078;2022-08-21T15:42:18;17.30;99.90
21403;DHT22;10862;51.886;17.078;2022-08-21T15:44:44;17.10;99.90
21403;DHT22;10862;51.886;17.078;2022-08-21T15:47:15;17.00;99.90
21403;DHT22;10862;51.886;17.078;2022-08-21T15:49:41;16.70;99.90
21403;DHT22;10862;51.886;17.078;2022-08-21T15:52:14;16.70;99.90
21403;DHT22;10862;51.886;17.078;2022-08-21T15:54:39;16.70;99.90
21403;DHT22;10862;51.886;17.078;2022-08-21T15:57:05;16.60;99.90
21403;DHT22;10862;51.886;17.078;2022-08-21T15:59:32;16.50;99.90
21403;DHT22;10862;51.886;17.078;2022-08-21T16:02:02;16.50;99.90
21403;DHT22;10862;51.886;17.078;2022-08-21T16:04:28;16.40;99.90
21403;DHT22;10862;51.886;17.078;2022-08-21T16:06:54;16.30;99.90
21403;DHT22;10862;51.886;17.078;2022-08-21T16:09:22;16.30;99.90
21403;DHT22;10862;51.886;17.078;2022-08-21T16:11:47;16.20;99.90
21403;DHT22;10862;51.886;17.078;2022-08-21T16:14:14;16.20;99.90
21403;DHT22;10862;51.886;17.078;2022-08-21T16:16:40;16.20;99.90
21403;DHT22;10862;51.886;17.078;2022-08-21T16:19:05;16.20;99.90
21403;DHT22;10862;51.886;17.078;2022-08-21T16:21:32;16.10;99.90
21403;DHT22;10862;51.886;17.078;2022-08-21T16:23:57;16.10;99.90
21403;DHT22;10862;51.886;17.078;2022-08-21T16:26:23;16.10;99.90
21403;DHT22;10862;51.886;17.078;2022-08-21T16:28:48;16.00;99.90
21403;DHT22;10862;51.886;17.078;2022-08-21T16:31:16;16.00;99.90
21403;DHT22;10862;51.886;17.078;2022-08-21T16:33:43;16.00;99.90
21403;DHT22;10862;51.886;17.078;2022-08-21T16:36:09;16.00;99.90
21403;DHT22;10862;51.886;17.078;2022-08-21T16:38:35;16.00;99.90
21403;DHT22;10862;51.886;17.078;2022-08-21T16:41:06;16.00;99.90
21403;DHT22;10862;51.886;17.078;2022-08-21T16:43:32;16.00;99.90
21403;DHT22;10862;51.886;17.078;2022-08-21T16:45:58;16.00;99.90
21403;DHT22;10862;51.886;17.078;2022-08-21T16:48:25;16.10;99.90
21403;DHT22;10862;51.886;17.078;2022-08-21T16:50:51;16.00;99.90